Time;durP1;ratioP1;P1;durP2;ratioP2;P2;SDS_P1;SDS_P2;PMS_P1;PMS_P2;Temp;Humidity;BMP_temperature;BMP_pressure;BME280_temperature;BME280_humidity;BME280_pressure;Samples;Min_cycle;Max_cycle;Signal;HPM_P1;HPM_P2
2022/06/08 00:00:14;;;;;;;2.40;2.30;;;18.50;59.20;;;;;;20504;6851;310406;-86
2022/06/08 00:02:40;;;;;;;2.70;2.50;;;18.70;58.90;;;;;;20494;6851;278101;-86
2022/06/08 00:05:06;;;;;;;2.57;2.40;;;18.90;58.30;;;;;;20719;6851;117749;-87
2022/06/08 00:07:31;;;;;;;3.27;2.97;;;18.80;58.40;;;;;;20511;6849;337129;-87
2022/06/08 00:09:58;;;;;;;2.70;2.50;;;18.90;58.70;;;;;;20517;6851;277976;-86
2022/06/08 00:12:22;;;;;;;2.78;2.58;;;19.00;58.20;;;;;;20511;6851;309906;-87
2022/06/08 00:14:48;;;;;;;2.75;2.53;;;19.20;57.70;;;;;;20506;6851;278025;-86
2022/06/08 00:17:13;;;;;;;4.70;2.40;;;19.40;57.40;;;;;;20516;6851;337519;-87
2022/06/08 00:19:40;;;;;;;2.25;2.15;;;19.20;57.60;;;;;;20736;6851;117514;-87
2022/06/08 00:22:05;;;;;;;2.63;2.43;;;19.20;57.50;;;;;;20724;6851;117709;-87
2022/06/08 00:24:31;;;;;;;2.90;2.80;;;18.90;58.30;;;;;;20705;6851;118335;-87
2022/06/08 00:26:56;;;;;;;3.15;2.95;;;18.60;59.00;;;;;;20528;6851;278437;-87
2022/06/08 00:29:24;;;;;;;2.58;2.47;;;18.70;59.70;;;;;;20727;6851;118020;-87
2022/06/08 00:31:50;;;;;;;2.33;2.23;;;18.60;59.20;;;;;;20729;6851;117307;-87
2022/06/08 00:34:15;;;;;;;3.50;2.90;;;18.50;59.70;;;;;;20729;6851;120264;-86
2022/06/08 00:36:41;;;;;;;3.17;3.03;;;18.10;60.30;;;;;;20703;6851;117932;-86
2022/06/08 00:39:08;;;;;;;3.42;3.22;;;18.10;60.30;;;;;;20513;6851;337786;-87
2022/06/08 00:41:50;;;;;;;6.20;3.62;;;18.40;60.50;;;;;;20515;6851;278645;-86
2022/06/08 00:44:23;;;;;;;7.55;3.87;;;18.70;59.60;;;;;;20504;6851;337218;-87
2022/06/08 00:46:48;;;;;;;4.20;3.90;;;19.00;58.40;;;;;;20483;6851;306687;-86
2022/06/08 00:49:21;;;;;;;13.30;4.00;;;19.20;58.00;;;;;;20511;6851;308352;-86
2022/06/08 00:51:46;;;;;;;15.67;3.83;;;19.30;57.60;;;;;;20712;6851;117481;-87
2022/06/08 00:54:12;;;;;;;9.13;3.60;;;19.00;57.80;;;;;;20723;6851;118140;-87
2022/06/08 00:56:37;;;;;;;9.52;4.03;;;18.60;58.60;;;;;;20478;6851;337561;-86
2022/06/08 00:59:03;;;;;;;28.07;4.10;;;18.60;58.80;;;;;;20699;6851;120408;-86
2022/06/08 01:01:29;;;;;;;18.07;3.90;;;18.50;58.80;;;;;;20716;6851;117949;-87
2022/06/08 01:04:08;;;;;;;33.27;4.13;;;18.20;59.30;;;;;;20718;6851;118708;-86
2022/06/08 01:06:34;;;;;;;17.53;4.20;;;18.00;59.90;;;;;;20470;6851;279706;-87
2022/06/08 01:08:59;;;;;;;18.23;4.67;;;18.20;59.90;;;;;;20725;6851;122957;-86
2022/06/08 01:11:28;;;;;;;14.23;3.80;;;18.20;59.60;;;;;;20715;6851;117258;-87
2022/06/08 01:13:54;;;;;;;5.07;4.10;;;18.00;59.90;;;;;;20497;6851;339165;-86
2022/06/08 01:16:19;;;;;;;13.57;3.90;;;18.10;59.80;;;;;;20706;6851;118982;-86
2022/06/08 01:18:45;;;;;;;13.07;4.32;;;18.10;59.80;;;;;;20511;6849;278054;-86
2022/06/08 01:21:20;;;;;;;18.67;4.03;;;18.20;59.60;;;;;;20730;6850;118122;-86
2022/06/08 01:23:49;;;;;;;6.90;4.07;;;18.10;59.40;;;;;;20526;6851;337095;-86
2022/06/08 01:26:22;;;;;;;10.10;3.07;;;18.00;59.00;;;;;;20735;6851;117689;-86
2022/06/08 01:28:51;;;;;;;24.30;3.50;;;18.00;59.00;;;;;;20700;6851;118280;-86
2022/06/08 01:31:20;;;;;;;11.77;3.00;;;17.70;59.60;;;;;;20716;6851;117856;-86
2022/06/08 01:33:51;;;;;;;5.20;3.60;;;17.50;60.20;;;;;;20699;6851;117478;-86
2022/06/08 01:36:37;;;;;;;3.40;3.10;;;17.30;60.70;;;;;;20709;6851;118391;-86
2022/06/08 01:39:05;;;;;;;18.95;4.50;;;17.20;61.30;;;;;;20514;6851;306905;-87
2022/06/08 01:41:41;;;;;;;10.20;4.80;;;17.50;61.60;;;;;;20501;6851;307182;-87
2022/06/08 01:44:34;;;;;;;39.97;5.47;;;17.90;60.70;;;;;;20521;6851;278745;-85
2022/06/08 01:47:06;;;;;;;39.53;4.60;;;18.20;59.90;;;;;;20706;6851;117859;-86
2022/06/08 01:49:30;;;;;;;94.13;6.30;;;18.00;59.80;;;;;;20494;6851;309871;-86
2022/06/08 01:52:05;;;;;;;89.03;5.87;;;18.10;60.00;;;;;;20698;6851;117959;-86
2022/06/08 01:54:44;;;;;;;64.47;5.13;;;18.00;60.00;;;;;;20704;6851;117578;-86
2022/06/08 01:57:35;;;;;;;23.03;4.57;;;17.70;60.60;;;;;;20525;6851;308426;-86
2022/06/08 02:00:01;;;;;;;9.10;4.12;;;17.80;60.30;;;;;;20528;6851;339657;-88
2022/06/08 02:02:32;;;;;;;6.17;3.50;;;18.10;59.10;;;;;;20711;6851;116662;-86
2022/06/08 02:05:18;;;;;;;20.37;4.00;;;17.90;59.20;;;;;;20507;6851;277599;-86
2022/06/08 02:07:47;;;;;;;3.53;3.23;;;18.00;59.30;;;;;;20162;6851;119851;-87
2022/06/08 02:10:15;;;;;;;7.22;3.60;;;17.80;59.40;;;;;;20487;6851;308153;-86
2022/06/08 02:12:51;;;;;;;3.10;3.00;;;17.80;59.20;;;;;;20677;6851;118735;-86
2022/06/08 02:15:17;;;;;;;3.03;2.83;;;17.40;60.00;;;;;;20669;6858;117744;-86
2022/06/08 02:17:43;;;;;;;2.60;2.50;;;17.40;60.00;;;;;;20699;6858;117152;-86
2022/06/08 02:20:15;;;;;;;3.47;3.27;;;17.10;60.50;;;;;;20483;6858;337128;-86
2022/06/08 02:22:50;;;;;;;3.57;3.37;;;17.30;60.30;;;;;;20457;6858;306882;-86
2022/06/08 02:25:28;;;;;;;3.40;3.10;;;17.60;59.30;;;;;;20485;6858;307939;-87
2022/06/08 02:27:57;;;;;;;7.77;3.20;;;17.90;58.80;;;;;;20719;6868;116412;-88
2022/06/08 02:30:22;;;;;;;10.13;3.17;;;17.70;59.00;;;;;;20665;6867;117782;-86
2022/06/08 02:35:53;;;;;;;4.90;3.10;;;17.40;59.70;;;;;;20730;6851;117693;-86
2022/06/08 02:38:19;;;;;;;3.10;2.90;;;17.20;59.80;;;;;;20695;6857;117589;-86
2022/06/08 02:40:45;;;;;;;12.47;3.20;;;17.00;60.30;;;;;;20676;6857;142284;-86
2022/06/08 02:43:16;;;;;;;10.98;3.62;;;16.80;60.80;;;;;;20452;6868;340681;-85
2022/06/08 02:45:42;;;;;;;10.33;3.20;;;16.90;60.40;;;;;;20652;6872;118463;-86
2022/06/08 02:48:09;;;;;;;12.63;2.90;;;16.90;60.20;;;;;;20698;6858;118490;-86
2022/06/08 02:50:35;;;;;;;22.47;3.77;;;16.50;60.90;;;;;;20685;6851;118278;-86
2022/06/08 02:53:08;;;;;;;14.37;4.00;;;16.50;60.90;;;;;;20512;6851;310320;-86
2022/06/08 02:55:33;;;;;;;7.18;3.60;;;16.70;60.70;;;;;;20423;6851;335434;-86
2022/06/08 02:58:00;;;;;;;7.15;3.05;;;17.00;60.00;;;;;;20706;6851;117089;-86
2022/06/08 03:00:35;;;;;;;3.50;3.20;;;17.00;60.00;;;;;;20494;6851;340241;-87
2022/06/08 03:03:07;;;;;;;4.03;3.43;;;17.10;59.80;;;;;;20515;6851;307762;-86
2022/06/08 03:05:32;;;;;;;9.00;3.23;;;17.40;59.10;;;;;;20701;6851;121147;-86
2022/06/08 03:07:58;;;;;;;44.67;4.45;;;17.30;59.10;;;;;;20482;6851;321559;-86
2022/06/08 03:10:23;;;;;;;78.03;4.32;;;17.30;59.00;;;;;;20725;6851;118367;-86
2022/06/08 03:13:02;;;;;;;33.40;3.90;;;17.20;59.20;;;;;;20482;6851;296574;-86
2022/06/08 03:15:27;;;;;;;2.90;2.80;;;17.30;59.50;;;;;;20718;6851;117685;-86
2022/06/08 03:17:53;;;;;;;3.10;2.90;;;17.10;60.00;;;;;;20511;6851;326981;-86
2022/06/08 03:20:19;;;;;;;5.53;2.70;;;17.20;59.10;;;;;;20716;6851;118121;-86
2022/06/08 03:22:44;;;;;;;2.90;2.70;;;17.10;59.10;;;;;;20490;6851;339673;-86
2022/06/08 03:25:10;;;;;;;3.33;2.30;;;17.10;58.30;;;;;;20728;6851;117369;-86
2022/06/08 03:27:39;;;;;;;5.43;2.20;;;17.10;58.30;;;;;;20723;6851;118026;-87
2022/06/08 03:30:05;;;;;;;2.75;2.55;;;16.80;58.80;;;;;;20505;6851;317418;-86
2022/06/08 03:32:30;;;;;;;2.80;2.60;;;17.00;58.20;;;;;;20492;6851;337549;-86
2022/06/08 03:34:56;;;;;;;2.85;2.65;;;17.30;57.50;;;;;;20518;6851;277619;-86
2022/06/08 03:37:22;;;;;;;2.40;2.30;;;17.40;56.70;;;;;;20719;6851;119136;-86
2022/06/08 03:39:48;;;;;;;2.53;2.43;;;17.40;57.10;;;;;;20509;6851;307966;-88
2022/06/08 03:42:14;;;;;;;2.90;2.70;;;17.70;57.30;;;;;;20505;6850;278216;-87
2022/06/08 03:44:40;;;;;;;2.57;2.37;;;17.70;56.80;;;;;;20714;6850;117212;-86
2022/06/08 03:47:05;;;;;;;2.40;2.30;;;17.50;57.00;;;;;;20733;6851;117728;-86
2022/06/08 03:49:31;;;;;;;2.97;2.77;;;17.30;57.80;;;;;;20503;6851;308918;-86
2022/06/08 03:51:57;;;;;;;3.92;2.90;;;17.40;57.60;;;;;;20508;6851;278400;-87
2022/06/08 03:54:22;;;;;;;2.70;2.50;;;17.70;57.30;;;;;;20456;6868;338021;-86
2022/06/08 03:56:48;;;;;;;4.00;2.80;;;17.90;56.80;;;;;;20495;6853;278725;-86
2022/06/08 03:59:14;;;;;;;2.83;2.63;;;18.20;56.00;;;;;;20493;6858;280040;-86
2022/06/08 04:01:40;;;;;;;2.70;2.50;;;18.20;56.00;;;;;;20508;6851;325941;-86
2022/06/08 04:04:05;;;;;;;2.73;2.53;;;18.40;55.40;;;;;;20515;6851;308006;-88
2022/06/08 04:06:31;;;;;;;3.70;2.53;;;18.50;55.10;;;;;;20495;6851;280318;-86
2022/06/08 04:08:56;;;;;;;3.40;3.00;;;18.50;55.00;;;;;;20511;6853;279221;-86
2022/06/08 04:11:22;;;;;;;2.90;2.70;;;18.60;54.70;;;;;;20508;6853;280253;-85
2022/06/08 04:13:47;;;;;;;3.10;2.90;;;18.70;54.60;;;;;;20508;6853;311633;-86
2022/06/08 04:16:13;;;;;;;2.97;2.47;;;18.70;54.40;;;;;;20719;6853;119341;-86
2022/06/08 04:18:39;;;;;;;2.83;2.10;;;18.10;55.90;;;;;;20697;6853;117750;-86
2022/06/08 04:21:06;;;;;;;2.63;2.43;;;18.10;55.90;;;;;;20713;6854;118035;-86
2022/06/08 04:23:30;;;;;;;3.03;2.83;;;17.90;56.70;;;;;;20498;6854;311299;-86
2022/06/08 04:25:56;;;;;;;2.93;2.73;;;18.00;57.20;;;;;;20717;6854;117193;-86
2022/06/08 04:28:21;;;;;;;3.25;2.95;;;18.00;57.30;;;;;;20501;6854;278596;-86
2022/06/08 04:30:48;;;;;;;3.40;3.20;;;18.40;56.30;;;;;;20486;6854;279587;-86
2022/06/08 04:33:13;;;;;;;3.20;2.90;;;18.40;56.30;;;;;;20715;6854;116391;-86
2022/06/08 04:35:40;;;;;;;3.00;2.80;;;18.40;56.30;;;;;;20493;6854;306684;-85
2022/06/08 04:38:06;;;;;;;2.60;2.40;;;18.40;56.30;;;;;;20716;6854;117256;-86
2022/06/08 04:40:31;;;;;;;2.72;2.53;;;18.30;56.50;;;;;;20473;6854;336327;-86
2022/06/08 04:42:56;;;;;;;2.90;2.70;;;18.40;56.00;;;;;;20507;6854;278650;-86
2022/06/08 04:45:22;;;;;;;3.00;2.37;;;18.60;55.20;;;;;;20723;6854;117347;-86
2022/06/08 04:47:47;;;;;;;3.70;2.50;;;18.40;55.40;;;;;;20514;6854;278590;-86
2022/06/08 04:50:14;;;;;;;3.10;2.70;;;18.50;55.10;;;;;;20507;6854;307828;-86
2022/06/08 04:52:40;;;;;;;2.47;2.27;;;18.60;54.20;;;;;;20692;6854;117701;-86
2022/06/08 04:55:05;;;;;;;2.50;2.30;;;18.50;54.60;;;;;;20515;6852;307822;-86
2022/06/08 04:57:34;;;;;;;2.27;2.07;;;18.50;54.40;;;;;;20716;6853;117462;-86
2022/06/08 04:59:57;;;;;;;3.42;2.60;;;18.40;54.80;;;;;;20499;6853;279124;-86
2022/06/08 05:05:08;;;;;;;3.17;2.70;;;18.40;54.80;;;;;;20511;6853;327497;-87
2022/06/08 05:07:33;;;;;;;3.10;2.57;;;18.50;54.50;;;;;;20511;6853;280586;-87
2022/06/08 05:10:00;;;;;;;4.00;2.60;;;18.90;54.00;;;;;;20505;6853;307858;-88
2022/06/08 05:12:26;;;;;;;2.47;2.27;;;18.90;54.00;;;;;;20722;6853;117534;-86
2022/06/08 05:14:51;;;;;;;2.53;2.40;;;18.70;54.30;;;;;;20696;6853;122355;-86
2022/06/08 05:17:16;;;;;;;2.40;2.20;;;18.50;55.00;;;;;;20715;6853;119175;-87
2022/06/08 05:19:42;;;;;;;3.00;2.70;;;18.30;55.50;;;;;;20514;6853;338659;-87
2022/06/08 05:22:07;;;;;;;2.45;2.25;;;18.50;54.80;;;;;;20477;6853;278729;-87
2022/06/08 05:24:33;;;;;;;2.27;2.07;;;18.90;54.10;;;;;;20699;6853;117747;-87
2022/06/08 05:26:58;;;;;;;3.17;2.33;;;18.90;54.30;;;;;;20510;6853;326239;-87
2022/06/08 05:29:25;;;;;;;2.20;2.00;;;19.00;54.10;;;;;;20712;6853;118450;-86
2022/06/08 05:31:52;;;;;;;2.93;2.10;;;19.00;54.10;;;;;;20720;6854;121612;-86
2022/06/08 05:34:17;;;;;;;3.77;2.47;;;18.80;54.40;;;;;;20712;6854;119434;-88
2022/06/08 05:36:43;;;;;;;2.45;2.25;;;18.70;54.80;;;;;;20486;6854;307882;-87
2022/06/08 05:39:08;;;;;;;2.50;2.07;;;18.80;54.30;;;;;;20724;6854;118644;-87
2022/06/08 05:41:34;;;;;;;2.47;2.33;;;18.80;54.50;;;;;;20511;6854;279529;-87
2022/06/08 05:43:59;;;;;;;2.60;2.40;;;19.00;55.40;;;;;;20512;6854;319947;-87
2022/06/08 05:46:25;;;;;;;3.30;2.62;;;19.20;54.70;;;;;;20514;6854;311426;-87
2022/06/08 05:48:51;;;;;;;3.85;2.25;;;19.40;54.40;;;;;;20714;6854;117381;-87
2022/06/08 05:51:16;;;;;;;3.40;2.27;;;19.30;54.50;;;;;;20714;6854;118601;-87
2022/06/08 05:53:42;;;;;;;2.83;2.57;;;18.90;55.10;;;;;;20727;6854;121983;-86
2022/06/08 05:56:08;;;;;;;2.77;2.50;;;18.40;56.20;;;;;;20720;6854;121389;-86
2022/06/08 05:58:34;;;;;;;2.90;2.70;;;18.40;56.20;;;;;;20489;6854;308666;-87
2022/06/08 06:00:59;;;;;;;2.70;2.50;;;18.60;56.60;;;;;;20507;6854;337762;-86
2022/06/08 06:03:25;;;;;;;3.17;2.50;;;18.90;56.30;;;;;;20508;6854;279046;-87
2022/06/08 06:05:51;;;;;;;2.60;2.40;;;19.20;55.10;;;;;;20516;6852;279263;-88
2022/06/08 06:08:17;;;;;;;2.87;2.05;;;19.30;54.30;;;;;;20513;6853;338057;-90
2022/06/08 06:10:42;;;;;;;3.90;2.60;;;19.50;53.10;;;;;;20697;6853;118880;-87
2022/06/08 06:13:08;;;;;;;2.80;2.00;;;19.30;54.10;;;;;;20716;6853;117422;-86
2022/06/08 06:15:34;;;;;;;3.85;2.42;;;19.00;54.70;;;;;;20511;6853;279221;-87
2022/06/08 06:17:59;;;;;;;2.75;2.50;;;19.10;54.30;;;;;;20506;6853;308247;-89
2022/06/08 06:20:25;;;;;;;2.35;1.90;;;19.40;53.70;;;;;;20516;6853;283230;-88
2022/06/08 06:22:50;;;;;;;2.93;2.00;;;19.60;53.30;;;;;;20703;6853;118502;-88
2022/06/08 06:25:16;;;;;;;3.05;2.15;;;19.50;53.40;;;;;;20518;6853;296504;-89
2022/06/08 06:27:41;;;;;;;2.67;1.80;;;19.60;53.10;;;;;;20722;6853;117921;-88
2022/06/08 06:30:07;;;;;;;2.00;1.90;;;19.50;53.50;;;;;;20748;6853;116878;-87
2022/06/08 06:32:33;;;;;;;2.30;2.10;;;19.30;54.10;;;;;;20737;6853;118023;-87
2022/06/08 06:34:58;;;;;;;3.70;2.30;;;19.10;54.40;;;;;;20554;6853;336071;-87
2022/06/08 06:37:24;;;;;;;2.90;2.00;;;19.30;53.90;;;;;;20567;6853;281759;-87
2022/06/08 06:39:49;;;;;;;2.95;1.73;;;19.60;53.30;;;;;;20772;6853;122637;-86
2022/06/08 06:42:15;;;;;;;3.25;2.08;;;19.50;53.30;;;;;;20565;6853;308152;-87
2022/06/08 06:44:41;;;;;;;3.75;2.10;;;19.60;52.60;;;;;;20522;6854;307310;-86
2022/06/08 06:47:06;;;;;;;2.95;2.05;;;19.90;52.10;;;;;;20752;6854;117308;-86
2022/06/08 06:49:32;;;;;;;3.80;2.00;;;19.80;52.60;;;;;;20555;6854;277646;-86
2022/06/08 06:51:58;;;;;;;2.97;2.20;;;19.90;52.50;;;;;;20552;6854;277916;-87
2022/06/08 06:54:23;;;;;;;2.60;1.87;;;20.10;52.20;;;;;;20758;6854;117735;-87
2022/06/08 06:56:48;;;;;;;1.80;1.70;;;19.90;52.40;;;;;;20690;6854;117252;-87
2022/06/08 06:59:14;;;;;;;2.30;2.10;;;19.70;52.90;;;;;;20512;6854;337701;-87
2022/06/08 07:01:41;;;;;;;2.90;2.33;;;19.80;53.10;;;;;;20715;6854;117521;-87
2022/06/08 07:04:05;;;;;;;3.10;2.10;;;19.80;53.40;;;;;;20719;6854;118288;-87
2022/06/08 07:06:31;;;;;;;4.43;2.70;;;19.60;53.90;;;;;;20508;6854;337675;-87
2022/06/08 07:08:59;;;;;;;2.50;2.30;;;19.80;54.10;;;;;;20720;6854;118674;-87
2022/06/08 07:11:40;;;;;;;2.53;2.33;;;19.50;54.30;;;;;;20723;6854;117303;-87
2022/06/08 07:14:00;;;;;;;2.50;2.30;;;19.50;54.30;;;;;;20686;6854;117228;-87
2022/06/08 07:16:25;;;;;;;4.37;2.60;;;19.30;54.60;;;;;;20719;6852;117524;-87
2022/06/08 07:18:50;;;;;;;3.07;2.87;;;19.20;55.10;;;;;;20700;6853;117622;-87
2022/06/08 07:21:16;;;;;;;2.47;2.37;;;19.00;55.60;;;;;;20728;6853;123755;-87
2022/06/08 07:23:42;;;;;;;3.07;2.47;;;18.90;56.00;;;;;;20731;6853;122167;-87
2022/06/08 07:26:08;;;;;;;2.43;2.30;;;18.90;56.50;;;;;;20720;6853;121081;-87
2022/06/08 07:28:34;;;;;;;2.27;2.17;;;18.80;56.40;;;;;;20707;6853;118916;-87
2022/06/08 07:31:00;;;;;;;2.00;1.90;;;18.90;56.40;;;;;;20720;6853;117526;-87
2022/06/08 07:33:25;;;;;;;2.47;2.27;;;18.90;56.40;;;;;;20723;6853;120412;-87
2022/06/08 07:35:51;;;;;;;4.40;1.80;;;19.00;56.60;;;;;;20724;6853;117246;-87
2022/06/08 07:38:16;;;;;;;2.17;1.70;;;19.20;56.50;;;;;;20717;6853;118277;-87
2022/06/08 07:40:42;;;;;;;2.20;2.00;;;19.30;55.90;;;;;;20495;6853;278553;-87
2022/06/08 07:43:08;;;;;;;2.17;1.97;;;19.80;54.50;;;;;;20720;6853;117517;-87
2022/06/08 07:45:34;;;;;;;2.33;2.12;;;20.10;54.50;;;;;;20728;6853;117369;-87
2022/06/08 07:50:44;;;;;;;2.30;2.10;;;20.40;53.90;;;;;;20698;6853;117776;-87
2022/06/08 07:53:10;;;;;;;2.50;2.17;;;20.50;54.10;;;;;;20503;6853;307778;-87
2022/06/08 07:55:35;;;;;;;2.50;2.10;;;21.00;52.10;;;;;;20501;6854;308654;-87
2022/06/08 07:58:03;;;;;;;2.03;1.70;;;22.00;50.80;;;;;;20722;6854;120451;-87
2022/06/08 08:00:28;;;;;;;5.03;2.13;;;22.00;50.80;;;;;;20701;6854;118040;-87
2022/06/08 08:02:53;;;;;;;3.92;1.85;;;22.10;50.60;;;;;;20705;6854;118426;-87
2022/06/08 08:05:19;;;;;;;2.07;1.60;;;22.20;51.00;;;;;;20730;6854;123462;-87
2022/06/08 08:07:44;;;;;;;2.03;1.70;;;22.40;51.00;;;;;;20726;6854;121386;-88
2022/06/08 08:10:09;;;;;;;3.28;1.80;;;22.60;50.40;;;;;;20519;6854;279010;-87
2022/06/08 08:12:35;;;;;;;1.90;1.70;;;23.00;48.40;;;;;;20452;6854;317500;-87
2022/06/08 08:15:00;;;;;;;2.03;1.83;;;23.50;47.60;;;;;;20511;6854;310914;-88
2022/06/08 08:17:26;;;;;;;3.37;1.80;;;23.90;45.40;;;;;;20724;6854;117582;-87
2022/06/08 08:19:52;;;;;;;3.33;1.70;;;24.00;45.80;;;;;;20726;6854;117609;-88
2022/06/08 08:22:19;;;;;;;4.10;1.98;;;23.90;46.10;;;;;;20504;6854;296908;-88
2022/06/08 08:24:43;;;;;;;2.97;2.00;;;24.30;45.20;;;;;;20481;6854;318532;-88
2022/06/08 08:27:09;;;;;;;3.83;1.80;;;24.30;45.10;;;;;;20730;6854;117563;-88
2022/06/08 08:29:35;;;;;;;3.67;1.67;;;24.40;45.30;;;;;;20748;6852;117064;-88
2022/06/08 08:32:01;;;;;;;2.78;1.67;;;24.30;45.40;;;;;;20551;6853;315426;-90
2022/06/08 08:34:26;;;;;;;1.87;1.60;;;24.50;43.90;;;;;;20512;6853;329783;-88
2022/06/08 08:36:51;;;;;;;2.77;1.60;;;24.80;42.40;;;;;;20707;6853;117872;-88
2022/06/08 08:39:17;;;;;;;2.97;1.75;;;25.00;43.50;;;;;;20515;6853;308485;-88
2022/06/08 08:44:29;;;;;;;3.30;1.50;;;25.30;42.30;;;;;;20730;6853;117271;-88
2022/06/08 08:46:59;;;;;;;3.50;1.33;;;25.20;42.20;;;;;;20702;6853;117958;-86
2022/06/08 08:49:26;;;;;;;3.53;1.60;;;25.00;42.30;;;;;;20492;6853;326585;-89
2022/06/08 08:51:50;;;;;;;1.95;1.35;;;25.20;40.00;;;;;;20720;6853;117287;-88
2022/06/08 08:54:34;;;;;;;3.00;1.60;;;25.20;41.00;;;;;;20641;6853;118570;-87
2022/06/08 08:57:11;;;;;;;3.63;1.67;;;25.10;41.70;;;;;;20720;6853;119724;-88
2022/06/08 08:59:36;;;;;;;3.17;1.70;;;24.90;42.00;;;;;;20518;6853;308611;-88
2022/06/08 09:02:02;;;;;;;3.62;2.03;;;25.10;41.10;;;;;;20524;6853;279509;-88
2022/06/08 09:04:28;;;;;;;3.28;1.50;;;25.30;40.20;;;;;;20736;6853;117780;-88
2022/06/08 09:06:54;;;;;;;4.00;1.67;;;25.20;41.00;;;;;;20710;6854;117739;-88
2022/06/08 09:09:23;;;;;;;2.20;1.60;;;25.10;42.10;;;;;;20525;6854;278111;-88
2022/06/08 09:11:49;;;;;;;1.50;1.40;;;25.30;40.70;;;;;;20711;6854;117667;-88
2022/06/08 09:14:17;;;;;;;3.80;1.60;;;25.40;41.20;;;;;;20725;6854;117203;-88
2022/06/08 09:16:46;;;;;;;1.90;1.40;;;25.50;41.50;;;;;;20697;6854;120217;-89
2022/06/08 09:19:22;;;;;;;2.40;1.23;;;26.00;40.80;;;;;;20507;6854;308513;-88
2022/06/08 09:21:48;;;;;;;2.67;1.63;;;26.30;40.40;;;;;;20721;6854;118282;-87
2022/06/08 09:24:28;;;;;;;3.13;1.60;;;26.30;40.30;;;;;;20513;6854;279557;-88
2022/06/08 09:26:54;;;;;;;1.63;1.27;;;27.00;38.30;;;;;;20494;6854;285373;-88
2022/06/08 09:29:22;;;;;;;2.23;1.50;;;26.90;38.20;;;;;;20449;6854;280914;-88
2022/06/08 09:31:48;;;;;;;3.77;1.40;;;27.50;35.10;;;;;;20509;6854;279016;-88
2022/06/08 09:34:14;;;;;;;2.57;1.40;;;27.40;35.00;;;;;;20513;6854;308123;-88
2022/06/08 09:36:39;;;;;;;1.97;1.30;;;27.60;36.00;;;;;;20694;6854;120103;-88
2022/06/08 09:39:05;;;;;;;2.35;1.40;;;27.50;36.50;;;;;;20517;6854;278573;-88
2022/06/08 09:41:34;;;;;;;1.20;1.00;;;27.60;35.20;;;;;;20720;6851;117043;-88
2022/06/08 09:44:12;;;;;;;2.60;1.40;;;27.60;35.90;;;;;;20717;6853;117502;-88
2022/06/08 09:52:33;;;;;;;2.40;1.33;;;27.20;36.60;;;;;;20727;6853;117156;-88
2022/06/08 09:54:59;;;;;;;2.93;1.50;;;27.00;36.50;;;;;;20717;6853;117395;-88
2022/06/08 09:57:41;;;;;;;1.90;1.30;;;26.90;37.10;;;;;;20715;6853;117600;-89
2022/06/08 10:00:23;;;;;;;2.03;1.30;;;26.90;37.60;;;;;;20506;6853;306587;-90
2022/06/08 10:03:16;;;;;;;1.93;1.10;;;27.20;35.60;;;;;;20719;6853;117530;-89
2022/06/08 10:06:07;;;;;;;3.23;1.00;;;27.40;36.10;;;;;;20727;6853;120437;-89
2022/06/08 10:08:42;;;;;;;4.63;1.10;;;27.40;36.20;;;;;;20715;6853;117596;-89
2022/06/08 10:11:34;;;;;;;2.83;1.27;;;27.40;36.60;;;;;;20525;6853;307931;-89
2022/06/08 10:14:33;;;;;;;0.93;0.70;;;27.60;33.00;;;;;;20730;6853;118261;-88
2022/06/08 10:17:17;;;;;;;1.30;0.93;;;27.90;33.90;;;;;;20512;6853;279133;-89
2022/06/08 10:19:54;;;;;;;1.67;1.10;;;28.20;33.10;;;;;;20506;6854;287610;-88
2022/06/08 10:22:19;;;;;;;2.50;1.10;;;28.60;30.30;;;;;;20494;6854;279290;-89
2022/06/08 10:25:24;;;;;;;2.07;0.97;;;28.90;30.70;;;;;;20503;6854;280270;-90
2022/06/08 10:27:54;;;;;;;1.07;0.60;;;29.00;29.90;;;;;;20712;6854;123165;-89
2022/06/08 10:30:30;;;;;;;1.70;1.00;;;29.00;31.50;;;;;;20515;6854;280390;-89
2022/06/08 10:33:11;;;;;;;3.00;0.83;;;29.10;29.80;;;;;;20679;6854;120349;-89
2022/06/08 10:35:48;;;;;;;0.80;0.70;;;28.80;30.50;;;;;;20716;6854;119105;-89
2022/06/08 10:38:22;;;;;;;1.30;0.90;;;28.80;30.60;;;;;;20510;6854;308491;-89
2022/06/08 10:40:54;;;;;;;2.37;1.20;;;28.90;30.10;;;;;;20486;6854;311153;-89
2022/06/08 10:43:24;;;;;;;0.87;0.70;;;29.20;29.00;;;;;;20708;6854;117761;-89
2022/06/08 10:45:52;;;;;;;1.80;0.93;;;29.20;29.20;;;;;;20502;6854;277666;-89
2022/06/08 10:48:24;;;;;;;2.28;0.82;;;29.20;28.10;;;;;;20513;6854;307833;-89
2022/06/08 10:50:50;;;;;;;0.87;0.60;;;29.40;28.20;;;;;;20713;6854;119781;-89
2022/06/08 10:56:26;;;;;;;1.80;0.80;;;29.20;29.10;;;;;;20735;6853;117106;-89
2022/06/08 10:58:53;;;;;;;1.63;1.00;;;29.10;29.10;;;;;;20705;6853;117756;-89
2022/06/08 11:01:42;;;;;;;1.97;0.83;;;28.90;29.20;;;;;;20510;6853;307413;-89
2022/06/08 11:04:11;;;;;;;4.00;0.90;;;28.90;29.20;;;;;;19527;7180;320921;-90
2022/06/08 11:06:54;;;;;;;2.50;0.93;;;29.20;28.50;;;;;;19989;6863;331428;-89
2022/06/08 11:09:19;;;;;;;2.60;0.90;;;29.40;28.20;;;;;;20269;6863;308619;-89
2022/06/08 11:11:44;;;;;;;1.10;0.90;;;29.50;28.20;;;;;;20464;6863;310112;-89
2022/06/08 11:14:23;;;;;;;1.50;0.80;;;29.50;26.60;;;;;;20685;6868;117208;-91
2022/06/08 11:16:49;;;;;;;3.70;1.10;;;29.20;27.80;;;;;;20639;6873;120617;-89
2022/06/08 11:19:15;;;;;;;1.75;1.05;;;28.90;29.70;;;;;;20510;6858;277797;-89
2022/06/08 11:21:58;;;;;;;2.30;0.90;;;28.90;29.70;;;;;;20499;6851;295941;-90
2022/06/08 11:24:34;;;;;;;1.03;0.80;;;29.10;29.10;;;;;;20724;6851;117595;-89
2022/06/08 11:27:10;;;;;;;0.60;0.60;;;29.10;29.10;;;;;;20724;6851;117303;-89
2022/06/08 11:29:39;;;;;;;1.12;0.90;;;28.90;29.60;;;;;;20475;6851;336638;-89
2022/06/08 11:32:06;;;;;;;2.50;0.93;;;28.90;29.70;;;;;;20729;6851;124489;-89
2022/06/08 11:34:55;;;;;;;1.00;0.80;;;29.00;30.00;;;;;;20485;6851;310416;-90
2022/06/08 11:37:30;;;;;;;1.58;0.93;;;29.10;27.70;;;;;;19540;7176;320996;-90
2022/06/08 11:40:19;;;;;;;2.00;0.95;;;29.30;27.20;;;;;;20145;6851;307308;-89
2022/06/08 11:42:47;;;;;;;1.00;0.90;;;29.50;29.20;;;;;;20708;6851;120679;-91
2022/06/08 11:45:13;;;;;;;0.77;0.60;;;29.40;28.40;;;;;;20702;6858;117876;-89
2022/06/08 11:47:49;;;;;;;1.37;1.07;;;29.20;28.70;;;;;;20682;6868;120427;-90
2022/06/08 11:50:16;;;;;;;1.03;0.90;;;29.10;28.60;;;;;;20473;6869;278642;-89
2022/06/08 11:52:41;;;;;;;1.02;0.90;;;29.10;26.50;;;;;;20498;6854;336972;-89
2022/06/08 11:55:13;;;;;;;2.03;0.90;;;29.20;26.50;;;;;;20691;6868;119046;-87
2022/06/08 11:57:39;;;;;;;1.15;0.80;;;29.10;28.70;;;;;;20449;6873;307389;-90
2022/06/08 12:00:06;;;;;;;1.20;0.93;;;29.10;28.70;;;;;;20503;6854;308328;-89
2022/06/08 12:02:34;;;;;;;1.53;1.03;;;29.20;27.90;;;;;;20474;6854;308538;-90
2022/06/08 12:05:00;;;;;;;1.87;0.80;;;29.30;28.00;;;;;;20723;6852;118386;-89
2022/06/08 12:07:36;;;;;;;2.20;1.00;;;29.20;28.40;;;;;;20728;6853;117255;-92
2022/06/08 12:10:00;;;;;;;1.47;1.00;;;29.00;28.90;;;;;;20507;6853;308287;-88
2022/06/08 12:12:26;;;;;;;1.50;0.80;;;29.00;28.60;;;;;;20579;6853;306274;-91
2022/06/08 12:14:54;;;;;;;0.93;0.80;;;29.20;29.10;;;;;;20749;6853;118212;-88
2022/06/08 12:17:22;;;;;;;1.52;0.80;;;29.20;29.10;;;;;;20531;6853;278532;-89
2022/06/08 12:19:55;;;;;;;1.30;0.83;;;29.20;27.40;;;;;;20429;6853;308777;-88
2022/06/08 12:22:27;;;;;;;2.40;1.00;;;29.30;26.70;;;;;;20727;6853;118516;-88
2022/06/08 12:25:09;;;;;;;2.45;0.90;;;29.00;27.50;;;;;;20480;6853;326076;-89
2022/06/08 12:27:55;;;;;;;1.37;0.90;;;28.90;26.00;;;;;;20722;6853;118514;-88
2022/06/08 12:30:23;;;;;;;1.00;0.90;;;28.60;26.70;;;;;;20512;6853;306944;-88
2022/06/08 12:32:52;;;;;;;2.33;1.07;;;28.60;28.40;;;;;;20701;6853;120888;-89
2022/06/08 12:35:31;;;;;;;1.53;1.00;;;28.50;28.40;;;;;;20514;6853;308642;-90
2022/06/08 12:38:18;;;;;;;3.57;1.00;;;28.60;29.00;;;;;;20699;6853;118067;-89
2022/06/08 12:41:01;;;;;;;0.80;0.63;;;28.50;29.50;;;;;;20690;6853;118216;-88
2022/06/08 12:43:26;;;;;;;0.87;0.80;;;28.30;29.60;;;;;;20722;6854;117720;-89
2022/06/08 12:46:02;;;;;;;1.17;0.90;;;28.10;29.90;;;;;;20694;6854;117617;-90
2022/06/08 12:48:27;;;;;;;2.20;0.90;;;28.00;30.00;;;;;;20465;6854;119327;-88
2022/06/08 12:50:53;;;;;;;1.05;0.90;;;27.90;30.80;;;;;;19811;6854;318717;-88
2022/06/08 12:53:19;;;;;;;1.83;0.93;;;28.20;30.80;;;;;;20719;6854;117431;-89
2022/06/08 12:55:45;;;;;;;1.50;1.10;;;28.20;30.40;;;;;;20727;6854;117348;-88
2022/06/08 12:58:11;;;;;;;1.00;0.87;;;28.30;30.80;;;;;;20516;6854;308086;-89
2022/06/08 13:00:37;;;;;;;1.50;1.07;;;28.30;30.80;;;;;;20700;6854;118430;-88
2022/06/08 13:03:10;;;;;;;1.00;0.88;;;28.60;29.60;;;;;;20499;6854;339560;-88